createdAt,value
2022-12-13T00:00:15.249Z,0.00
2022-12-13T00:01:15.212Z,0.00
2022-12-13T00:02:15.238Z,0.00
2022-12-13T00:03:15.152Z,0.00
2022-12-13T00:04:15.220Z,0.00
2022-12-13T00:05:15.541Z,0.00
2022-12-13T00:06:15.068Z,0.00
2022-12-13T00:07:15.033Z,0.00
2022-12-13T00:08:15.030Z,0.00
2022-12-13T00:09:14.972Z,0.00
2022-12-13T00:10:14.951Z,0.00
2022-12-13T00:11:14.903Z,0.00
2022-12-13T00:12:14.878Z,0.00
2022-12-13T00:13:14.847Z,0.00
2022-12-13T00:14:14.841Z,0.00
2022-12-13T00:15:14.922Z,0.00
2022-12-13T00:16:14.829Z,0.00
2022-12-13T00:17:14.721Z,0.00
2022-12-13T00:18:14.694Z,0.00
2022-12-13T00:19:14.659Z,0.00
2022-12-13T00:20:14.980Z,0.00
2022-12-13T00:21:14.601Z,0.00
2022-12-13T00:22:14.575Z,0.00
2022-12-13T00:23:14.538Z,0.00
2022-12-13T00:24:14.510Z,0.00
2022-12-13T00:25:14.772Z,0.00
2022-12-13T00:26:14.448Z,0.00
2022-12-13T00:27:14.412Z,0.00
2022-12-13T00:28:14.385Z,0.00
2022-12-13T00:29:14.350Z,0.00
2022-12-13T00:30:14.334Z,0.00
2022-12-13T00:31:53.550Z,0.00
2022-12-13T00:32:14.276Z,0.00
2022-12-13T00:33:14.228Z,0.00
2022-12-13T00:34:14.201Z,0.00
2022-12-13T00:35:14.563Z,0.00
2022-12-13T00:36:14.138Z,0.00
2022-12-13T00:37:14.117Z,0.00
2022-12-13T00:38:14.076Z,0.00
2022-12-13T00:39:14.049Z,0.00
2022-12-13T00:40:14.017Z,0.00
2022-12-13T00:41:13.974Z,0.00
2022-12-13T00:42:13.950Z,0.00
2022-12-13T00:43:13.918Z,0.00
2022-12-13T00:44:13.887Z,0.00
2022-12-13T00:45:14.144Z,0.00
2022-12-13T00:46:13.859Z,0.00
2022-12-13T00:47:13.812Z,0.00
2022-12-13T00:48:13.764Z,0.00
2022-12-13T00:49:13.732Z,0.00
2022-12-13T00:50:13.733Z,0.00
2022-12-13T00:51:13.670Z,0.00
2022-12-13T00:52:13.637Z,0.00
2022-12-13T00:53:13.612Z,0.00
2022-12-13T00:54:13.579Z,0.00
2022-12-13T00:55:13.862Z,0.00
2022-12-13T00:56:13.531Z,0.00
2022-12-13T00:57:13.502Z,0.00
2022-12-13T00:58:13.454Z,0.00
2022-12-13T00:59:13.430Z,0.00
2022-12-13T01:00:13.398Z,0.00
2022-12-13T01:01:13.474Z,0.00
2022-12-13T01:02:13.332Z,0.00
2022-12-13T01:03:13.354Z,0.00
2022-12-13T01:04:13.274Z,0.00
2022-12-13T01:05:13.530Z,0.00
2022-12-13T01:06:15.397Z,0.00
2022-12-13T01:07:13.179Z,0.00
2022-12-13T01:08:13.211Z,0.00
2022-12-13T01:09:13.119Z,0.00
2022-12-13T01:10:13.078Z,0.00
2022-12-13T01:11:13.080Z,0.00
2022-12-13T01:12:13.020Z,0.00
2022-12-13T01:13:12.991Z,0.00
2022-12-13T01:14:12.960Z,0.00
2022-12-13T01:15:13.286Z,0.00
2022-12-13T01:16:12.958Z,0.00
2022-12-13T01:17:12.976Z,0.00
2022-12-13T01:18:12.837Z,0.00
2022-12-13T01:19:12.803Z,0.00
2022-12-13T01:20:12.775Z,0.00
2022-12-13T01:21:12.749Z,0.00
2022-12-13T01:22:12.709Z,0.00
2022-12-13T01:23:12.686Z,0.00
2022-12-13T01:24:12.648Z,0.00
2022-12-13T01:25:13.063Z,0.00
2022-12-13T01:26:12.581Z,0.00
2022-12-13T01:27:12.554Z,0.00
2022-12-13T01:28:12.522Z,0.00
2022-12-13T01:29:12.498Z,0.00
2022-12-13T01:30:12.455Z,0.00
2022-12-13T01:31:12.452Z,0.00
2022-12-13T01:32:12.425Z,0.00
2022-12-13T01:33:14.576Z,0.00
2022-12-13T01:34:12.345Z,0.00
2022-12-13T01:35:12.688Z,0.00
2022-12-13T01:36:12.270Z,0.00
2022-12-13T01:37:12.248Z,0.00
2022-12-13T01:38:15.869Z,0.00
2022-12-13T01:39:15.200Z,0.00
2022-12-13T01:40:15.942Z,0.00
2022-12-13T01:41:17.353Z,0.00
2022-12-13T01:42:12.089Z,0.00
2022-12-13T01:43:14.486Z,0.00
2022-12-13T01:44:12.025Z,0.00
2022-12-13T01:45:12.258Z,0.00
2022-12-13T01:46:12.068Z,0.00
2022-12-13T01:47:11.934Z,0.00
2022-12-13T01:48:11.895Z,0.00
2022-12-13T01:49:19.801Z,0.00
2022-12-13T01:50:11.842Z,0.00
2022-12-13T01:51:11.807Z,0.00
2022-12-13T01:52:11.774Z,0.00
2022-12-13T01:53:11.748Z,0.00
2022-12-13T01:54:11.714Z,0.00
2022-12-13T01:55:11.705Z,0.00
2022-12-13T01:56:11.651Z,0.00
2022-12-13T01:57:11.627Z,0.00
2022-12-13T01:58:11.590Z,0.00
2022-12-13T01:59:11.558Z,0.00
2022-12-13T02:00:11.525Z,0.00
2022-12-13T02:01:11.521Z,0.00
2022-12-13T02:02:11.482Z,0.00
2022-12-13T02:03:21.076Z,0.00
2022-12-13T02:04:11.402Z,0.00
2022-12-13T02:05:11.524Z,0.00
2022-12-13T02:06:11.344Z,0.00
2022-12-13T02:07:11.310Z,0.00
2022-12-13T02:08:11.319Z,0.00
2022-12-13T02:09:11.248Z,0.00
2022-12-13T02:10:11.217Z,0.00
2022-12-13T02:11:11.188Z,0.00
2022-12-13T02:12:11.150Z,0.00
2022-12-13T02:13:11.126Z,0.00
2022-12-13T02:14:11.104Z,0.00
2022-12-13T02:15:11.065Z,0.00
2022-12-13T02:16:11.078Z,0.00
2022-12-13T02:17:10.999Z,0.00
2022-12-13T02:18:10.960Z,0.00
2022-12-13T02:19:10.932Z,0.00
2022-12-13T02:20:10.899Z,0.00
2022-12-13T02:21:10.872Z,0.00
2022-12-13T02:22:10.838Z,0.00
2022-12-13T02:23:10.811Z,0.00
2022-12-13T02:24:10.775Z,0.00
2022-12-13T02:25:10.753Z,0.00
2022-12-13T02:26:11.411Z,0.00
2022-12-13T02:27:10.790Z,0.00
2022-12-13T02:28:31.660Z,0.00
2022-12-13T02:29:10.623Z,0.00
2022-12-13T02:30:10.596Z,0.00
2022-12-13T02:31:10.608Z,0.00
2022-12-13T02:32:10.537Z,0.00
2022-12-13T02:33:10.498Z,0.00
2022-12-13T02:34:10.457Z,0.00
2022-12-13T02:35:10.437Z,0.00
2022-12-13T02:36:10.405Z,0.00
2022-12-13T02:37:17.856Z,0.00
2022-12-13T02:38:10.344Z,0.00
2022-12-13T02:39:10.305Z,0.00
2022-12-13T02:40:10.273Z,0.00
2022-12-13T02:41:10.248Z,0.00
2022-12-13T02:42:21.558Z,0.00
2022-12-13T02:43:10.182Z,0.00
2022-12-13T02:44:21.818Z,0.00
2022-12-13T02:45:11.570Z,0.00
2022-12-13T02:46:10.139Z,0.00
2022-12-13T02:47:12.813Z,0.00
2022-12-13T02:48:10.025Z,0.00
2022-12-13T02:49:09.993Z,0.00
2022-12-13T02:50:09.959Z,0.00
2022-12-13T02:51:09.934Z,0.00
2022-12-13T02:52:09.903Z,0.00
2022-12-13T02:53:09.880Z,0.00
2022-12-13T02:54:09.831Z,0.00
2022-12-13T02:55:09.809Z,0.00
2022-12-13T02:56:09.798Z,0.00
2022-12-13T02:57:09.744Z,0.00
2022-12-13T02:58:09.705Z,0.00
2022-12-13T02:59:09.681Z,0.00
2022-12-13T03:00:09.650Z,0.00
2022-12-13T03:01:28.606Z,0.00
2022-12-13T03:02:10.713Z,0.00
2022-12-13T03:03:09.636Z,0.00
2022-12-13T03:04:09.522Z,0.00
2022-12-13T03:05:09.495Z,0.00
2022-12-13T03:06:09.466Z,0.00
2022-12-13T03:07:09.432Z,0.00
2022-12-13T03:08:09.421Z,0.00
2022-12-13T03:09:09.363Z,0.00
2022-12-13T03:10:09.405Z,0.00
2022-12-13T03:11:09.302Z,0.00
2022-12-13T03:12:09.269Z,0.00
2022-12-13T03:13:09.245Z,0.00
2022-12-13T03:14:09.203Z,0.00
2022-12-13T03:15:09.179Z,0.00
2022-12-13T03:16:09.228Z,0.00
2022-12-13T03:17:09.147Z,0.00
2022-12-13T03:18:09.079Z,0.00
2022-12-13T03:19:09.051Z,0.00
2022-12-13T03:20:12.733Z,0.00
2022-12-13T03:21:08.992Z,0.00
2022-12-13T03:22:08.961Z,0.00
2022-12-13T03:23:08.929Z,0.00
2022-12-13T03:24:08.893Z,0.00
2022-12-13T03:25:08.863Z,0.00
2022-12-13T03:26:08.828Z,0.00
2022-12-13T03:27:08.805Z,0.00
2022-12-13T03:28:08.767Z,0.00
2022-12-13T03:29:08.734Z,0.00
2022-12-13T03:30:08.702Z,0.00
2022-12-13T03:31:08.715Z,0.00
2022-12-13T03:32:08.640Z,0.00
2022-12-13T03:33:08.613Z,0.00
2022-12-13T03:34:08.573Z,0.00
2022-12-13T03:35:22.279Z,0.00
2022-12-13T03:36:08.511Z,0.00
2022-12-13T03:37:08.486Z,0.00
2022-12-13T03:38:08.452Z,0.00
2022-12-13T03:39:08.426Z,0.00
2022-12-13T03:40:08.403Z,0.00
2022-12-13T03:41:08.368Z,0.00
2022-12-13T03:42:08.326Z,0.00
2022-12-13T03:43:08.297Z,0.00
2022-12-13T03:44:08.262Z,0.00
2022-12-13T03:45:08.235Z,0.00
2022-12-13T03:46:08.271Z,0.00
2022-12-13T03:47:08.175Z,0.00
2022-12-13T03:48:08.146Z,0.00
2022-12-13T03:49:10.402Z,0.00
2022-12-13T03:50:28.345Z,0.00
2022-12-13T03:51:08.047Z,0.00
2022-12-13T03:52:08.008Z,0.00
2022-12-13T03:53:07.981Z,0.00
2022-12-13T03:54:07.948Z,0.00
2022-12-13T03:55:07.925Z,0.00
2022-12-13T03:56:07.883Z,0.00
2022-12-13T03:57:07.859Z,0.00
2022-12-13T03:58:08.217Z,0.00
2022-12-13T03:59:07.792Z,0.00
2022-12-13T04:00:07.754Z,0.00
2022-12-13T04:01:07.732Z,0.00
2022-12-13T04:02:07.724Z,0.00
2022-12-13T04:03:07.736Z,0.00
2022-12-13T04:04:07.643Z,0.00
2022-12-13T04:05:07.609Z,0.00
2022-12-13T04:06:07.566Z,0.00
2022-12-13T04:07:21.829Z,0.00
2022-12-13T04:08:21.591Z,0.00
2022-12-13T04:09:07.476Z,0.00
2022-12-13T04:10:25.552Z,0.00
2022-12-13T04:11:07.415Z,0.00
2022-12-13T04:12:07.398Z,0.00
2022-12-13T04:13:07.352Z,0.00
2022-12-13T04:14:07.320Z,0.00
2022-12-13T04:15:07.322Z,0.00
2022-12-13T04:16:07.275Z,0.00
2022-12-13T04:17:07.226Z,0.00
2022-12-13T04:18:07.210Z,0.00
2022-12-13T04:19:07.162Z,0.00
2022-12-13T04:20:07.128Z,0.00
2022-12-13T04:21:07.098Z,0.00
2022-12-13T04:22:07.065Z,0.00
2022-12-13T04:23:09.954Z,0.00
2022-12-13T04:24:07.001Z,0.00
2022-12-13T04:25:06.978Z,0.00
2022-12-13T04:26:06.940Z,0.00
2022-12-13T04:27:06.918Z,0.00
2022-12-13T04:28:06.886Z,0.00
2022-12-13T04:29:06.850Z,0.00
2022-12-13T04:30:06.813Z,0.00
2022-12-13T04:31:06.863Z,0.00
2022-12-13T04:32:26.045Z,0.00
2022-12-13T04:33:06.720Z,0.00
2022-12-13T04:34:06.690Z,0.00
2022-12-13T04:35:06.657Z,0.00
2022-12-13T04:36:06.620Z,0.00
2022-12-13T04:37:06.596Z,0.00
2022-12-13T04:38:06.566Z,0.00
2022-12-13T04:39:22.092Z,0.00
2022-12-13T04:40:06.494Z,0.00
2022-12-13T04:41:06.469Z,0.00
2022-12-13T04:42:06.435Z,0.00
2022-12-13T04:43:06.405Z,0.00
2022-12-13T04:44:06.368Z,0.00
2022-12-13T04:45:06.343Z,0.00
2022-12-13T04:46:06.371Z,0.00
2022-12-13T04:47:06.279Z,0.00
2022-12-13T04:48:06.244Z,0.00
2022-12-13T04:49:06.215Z,0.00
2022-12-13T04:50:06.184Z,0.00
2022-12-13T04:51:06.157Z,0.00
2022-12-13T04:52:06.118Z,0.00
2022-12-13T04:53:06.090Z,0.00
2022-12-13T04:54:23.397Z,0.00
2022-12-13T04:55:06.022Z,0.00
2022-12-13T04:56:05.988Z,0.00
2022-12-13T04:57:05.967Z,0.00
2022-12-13T04:58:05.934Z,0.00
2022-12-13T04:59:05.904Z,0.00
2022-12-13T05:00:05.872Z,0.00
2022-12-13T05:01:05.890Z,0.00
2022-12-13T05:02:05.942Z,0.00
2022-12-13T05:03:05.794Z,0.00
2022-12-13T05:04:05.743Z,0.00
2022-12-13T05:05:05.705Z,0.00
2022-12-13T05:06:05.674Z,0.00
2022-12-13T05:07:05.643Z,0.00
2022-12-13T05:08:05.654Z,0.00
2022-12-13T05:09:05.578Z,0.00
2022-12-13T05:10:05.551Z,0.00
2022-12-13T05:11:05.512Z,0.00
2022-12-13T05:12:05.487Z,0.00
2022-12-13T05:13:05.450Z,0.00
2022-12-13T05:14:05.422Z,0.00
2022-12-13T05:15:05.384Z,0.00
2022-12-13T05:16:05.414Z,0.00
2022-12-13T05:17:05.323Z,0.00
2022-12-13T05:18:10.226Z,0.00
2022-12-13T05:19:05.276Z,0.00
2022-12-13T05:20:05.232Z,0.00
2022-12-13T05:21:05.205Z,0.00
2022-12-13T05:22:05.174Z,0.00
2022-12-13T05:23:05.130Z,0.00
2022-12-13T05:24:05.119Z,0.00
2022-12-13T05:25:05.077Z,0.00
2022-12-13T05:26:05.043Z,0.00
2022-12-13T05:27:24.484Z,0.00
2022-12-13T05:28:26.780Z,0.00
2022-12-13T05:29:04.942Z,0.00
2022-12-13T05:30:05.481Z,0.00
2022-12-13T05:31:04.885Z,0.00
2022-12-13T05:32:04.890Z,0.00
2022-12-13T05:33:04.815Z,0.00
2022-12-13T05:34:04.797Z,0.00
2022-12-13T05:35:04.756Z,0.00
2022-12-13T05:36:04.730Z,0.00
2022-12-13T05:37:04.698Z,0.00
2022-12-13T05:38:04.670Z,0.00
2022-12-13T05:39:04.631Z,0.00
2022-12-13T05:40:04.599Z,0.00
2022-12-13T05:41:04.562Z,0.00
2022-12-13T05:42:04.541Z,0.00
2022-12-13T05:43:04.507Z,0.00
2022-12-13T05:44:04.477Z,0.00
2022-12-13T05:45:04.440Z,0.00
2022-12-13T05:46:04.471Z,0.00
2022-12-13T05:47:04.373Z,0.00
2022-12-13T05:48:04.350Z,0.00
2022-12-13T05:49:04.311Z,0.00
2022-12-13T05:50:04.289Z,0.00
2022-12-13T05:51:09.772Z,0.00
2022-12-13T05:52:04.221Z,0.00
2022-12-13T05:53:04.184Z,0.00
2022-12-13T05:54:04.161Z,0.00
2022-12-13T05:55:04.123Z,0.00
2022-12-13T05:56:04.097Z,0.00
2022-12-13T05:57:04.054Z,0.00
2022-12-13T05:58:04.031Z,0.00
2022-12-13T05:59:04.002Z,0.00
2022-12-13T06:00:03.964Z,0.00
2022-12-13T06:01:03.928Z,0.00
2022-12-13T06:02:04.058Z,0.00
2022-12-13T06:03:03.939Z,0.00
2022-12-13T06:04:03.843Z,0.00
2022-12-13T06:05:03.796Z,0.00
2022-12-13T06:06:03.798Z,0.00
2022-12-13T06:07:03.737Z,0.00
2022-12-13T06:08:03.777Z,0.00
2022-12-13T06:09:03.704Z,0.00
2022-12-13T06:10:10.187Z,0.00
2022-12-13T06:11:09.964Z,0.00
2022-12-13T06:12:03.584Z,0.00
2022-12-13T06:13:22.177Z,0.00
2022-12-13T06:14:03.521Z,0.00
2022-12-13T06:15:03.485Z,0.00
2022-12-13T06:16:03.469Z,0.00
2022-12-13T06:17:03.467Z,0.00
2022-12-13T06:18:03.419Z,0.00
2022-12-13T06:19:04.787Z,0.00
2022-12-13T06:20:03.330Z,0.00
2022-12-13T06:21:03.297Z,0.00
2022-12-13T06:22:03.390Z,0.00
2022-12-13T06:23:03.236Z,0.00
2022-12-13T06:24:03.206Z,0.00
2022-12-13T06:25:03.173Z,0.00
2022-12-13T06:26:03.140Z,0.00
2022-12-13T06:27:03.103Z,0.00
2022-12-13T06:28:03.095Z,0.00
2022-12-13T06:29:03.042Z,0.00
2022-12-13T06:30:03.118Z,0.00
2022-12-13T06:31:03.008Z,0.00
2022-12-13T06:32:03.695Z,0.00
2022-12-13T06:33:02.918Z,0.00
2022-12-13T06:34:14.588Z,0.00
2022-12-13T06:35:27.142Z,0.00
2022-12-13T06:36:02.823Z,0.00
2022-12-13T06:37:02.786Z,4.00
2022-12-13T06:38:02.762Z,0.00
2022-12-13T06:39:02.719Z,0.00
2022-12-13T06:40:02.695Z,4.00
2022-12-13T06:41:02.666Z,4.00
2022-12-13T06:42:02.647Z,4.00
2022-12-13T06:43:02.585Z,4.00
2022-12-13T06:44:02.568Z,4.00
2022-12-13T06:45:02.557Z,4.00
2022-12-13T06:46:02.572Z,4.00
2022-12-13T06:47:10.262Z,4.00
2022-12-13T06:48:02.435Z,8.00
2022-12-13T06:49:02.419Z,8.00
2022-12-13T06:50:05.281Z,12.00
2022-12-13T06:51:02.342Z,16.00
2022-12-13T06:52:02.318Z,16.00
2022-12-13T06:53:02.318Z,16.00
2022-12-13T06:54:02.255Z,24.00
2022-12-13T06:55:02.242Z,24.00
2022-12-13T06:56:02.186Z,28.00
2022-12-13T06:57:02.188Z,36.00
2022-12-13T06:58:02.117Z,40.00
2022-12-13T06:59:02.433Z,40.00
2022-12-13T07:00:02.058Z,48.00
2022-12-13T07:01:02.116Z,56.00
2022-12-13T07:02:03.299Z,64.00
2022-12-13T07:03:01.977Z,72.00
2022-12-13T07:04:01.930Z,80.00
2022-12-13T07:05:01.898Z,88.00
2022-12-13T07:06:01.860Z,96.00
2022-12-13T07:07:02.378Z,112.00
2022-12-13T07:08:01.838Z,120.00
2022-12-13T07:09:01.763Z,132.00
2022-12-13T07:10:01.741Z,144.00
2022-12-13T07:11:01.715Z,156.00
2022-12-13T07:12:01.673Z,172.00
2022-12-13T07:13:01.653Z,188.00
2022-12-13T07:14:01.612Z,200.00
2022-12-13T07:15:01.591Z,220.00
2022-12-13T07:16:01.606Z,236.00
2022-12-13T07:17:03.725Z,248.00
2022-12-13T07:18:01.499Z,268.00
2022-12-13T07:19:01.715Z,284.00
2022-12-13T07:20:01.647Z,304.00
2022-12-13T07:21:01.376Z,324.00
2022-12-13T07:22:01.528Z,340.00
2022-12-13T07:23:01.321Z,360.00
2022-12-13T07:24:01.305Z,380.00
2022-12-13T07:25:01.254Z,400.00
2022-12-13T07:26:01.220Z,420.00
2022-12-13T07:27:01.198Z,444.00
2022-12-13T07:28:02.437Z,468.00
2022-12-13T07:29:01.123Z,488.00
2022-12-13T07:30:01.094Z,512.00
2022-12-13T07:31:01.151Z,532.00
2022-12-13T07:32:02.193Z,556.00
2022-12-13T07:33:00.992Z,580.00
2022-12-13T07:34:00.975Z,604.00
2022-12-13T07:35:00.936Z,628.00
2022-12-13T07:36:00.905Z,652.00
2022-12-13T07:37:00.878Z,676.00
2022-12-13T07:38:00.835Z,704.00
2022-12-13T07:39:00.802Z,724.00
2022-12-13T07:40:04.207Z,748.00
2022-12-13T07:41:00.817Z,768.00
2022-12-13T07:42:00.738Z,792.00
2022-12-13T07:43:00.679Z,812.00
2022-12-13T07:44:00.649Z,832.00
2022-12-13T07:45:00.621Z,848.00
2022-12-13T07:46:00.682Z,876.00
2022-12-13T07:47:00.595Z,896.00
2022-12-13T07:48:00.517Z,912.00
2022-12-13T07:49:01.556Z,924.00
2022-12-13T07:50:01.458Z,944.00
2022-12-13T07:51:00.441Z,968.00
2022-12-13T07:52:00.390Z,1004.00
2022-12-13T07:53:00.371Z,1020.00
2022-12-13T07:54:00.330Z,1032.00
2022-12-13T07:55:00.289Z,1072.00
2022-12-13T07:56:00.265Z,1096.00
2022-12-13T07:57:04.379Z,1088.00
2022-12-13T07:58:00.203Z,1136.00
2022-12-13T07:59:00.192Z,1176.00
2022-12-13T08:00:00.142Z,1196.00
2022-12-13T08:01:00.130Z,1216.00
2022-12-13T08:02:01.885Z,1216.00
2022-12-13T08:03:00.040Z,1260.00
2022-12-13T08:04:00.007Z,1308.00
2022-12-13T08:05:00.006Z,1360.00
2022-12-13T08:06:00.000Z,1340.00
2022-12-13T08:06:59.907Z,1352.00
2022-12-13T08:07:59.916Z,1376.00
2022-12-13T08:08:59.841Z,1428.00
2022-12-13T08:09:59.822Z,1476.00
2022-12-13T08:11:01.454Z,1500.00
2022-12-13T08:11:59.763Z,1528.00
2022-12-13T08:12:59.737Z,1580.00
2022-12-13T08:13:59.708Z,1620.00
2022-12-13T08:14:59.655Z,1640.00
2022-12-13T08:15:59.663Z,1712.00
2022-12-13T08:16:59.603Z,1744.00
2022-12-13T08:17:59.564Z,1800.00
2022-12-13T08:19:01.781Z,1832.00
2022-12-13T08:19:59.507Z,1832.00
2022-12-13T08:20:59.478Z,1880.00
2022-12-13T08:22:01.745Z,1884.00
2022-12-13T08:23:02.319Z,1908.00
2022-12-13T08:23:59.402Z,2012.00
2022-12-13T08:24:59.341Z,2252.00
2022-12-13T08:25:59.312Z,2380.00
2022-12-13T08:26:59.279Z,2356.00
2022-12-13T08:28:02.226Z,2612.00
2022-12-13T08:28:59.239Z,2556.00
2022-12-13T08:29:59.216Z,2520.00
2022-12-13T08:30:59.213Z,2576.00
2022-12-13T08:32:01.443Z,2412.00
2022-12-13T08:32:59.099Z,2368.00
2022-12-13T08:33:59.068Z,2524.00
2022-12-13T08:34:59.057Z,2708.00
2022-12-13T08:35:59.005Z,2684.00
2022-12-13T08:37:02.031Z,2748.00
2022-12-13T08:37:58.937Z,2636.00
2022-12-13T08:38:58.906Z,2680.00
2022-12-13T08:39:58.878Z,2528.00
2022-12-13T08:40:58.841Z,2236.00
2022-12-13T08:41:58.824Z,2176.00
2022-12-13T08:42:58.781Z,2220.00
2022-12-13T08:43:58.753Z,2228.00
2022-12-13T08:44:58.725Z,2272.00
2022-12-13T08:46:01.316Z,2380.00
2022-12-13T08:46:58.703Z,2408.00
2022-12-13T08:47:58.634Z,2344.00
2022-12-13T08:48:58.627Z,2324.00
2022-12-13T08:50:01.933Z,2348.00
2022-12-13T08:50:58.540Z,2448.00
2022-12-13T08:51:58.509Z,2520.00
2022-12-13T08:52:58.481Z,2420.00
2022-12-13T08:54:10.214Z,2428.00
2022-12-13T08:54:58.421Z,2756.00
2022-12-13T08:55:58.393Z,3032.00
2022-12-13T08:56:58.363Z,3524.00
2022-12-13T08:57:58.351Z,3496.00
2022-12-13T08:58:58.299Z,3312.00
2022-12-13T08:59:58.276Z,3544.00
2022-12-13T09:00:58.261Z,3748.00
2022-12-13T09:02:04.601Z,3784.00
2022-12-13T09:02:58.178Z,3540.00
2022-12-13T09:03:58.151Z,3064.00
2022-12-13T09:04:58.116Z,3424.00
2022-12-13T09:05:58.099Z,3540.00
2022-12-13T09:06:58.056Z,3000.00
2022-12-13T09:07:58.051Z,2932.00
2022-12-13T09:08:58.087Z,3228.00
2022-12-13T09:09:57.970Z,4616.00
2022-12-13T09:10:59.337Z,4848.00
2022-12-13T09:11:59.137Z,3628.00
2022-12-13T09:13:01.607Z,3200.00
2022-12-13T09:14:01.321Z,3320.00
2022-12-13T09:15:01.667Z,3588.00
2022-12-13T09:16:01.233Z,3384.00
2022-12-13T09:17:02.829Z,3664.00
2022-12-13T09:17:57.757Z,4116.00
2022-12-13T09:18:57.703Z,4836.00
2022-12-13T09:19:58.390Z,5276.00
2022-12-13T09:21:10.393Z,5120.00
2022-12-13T09:22:02.030Z,5432.00
2022-12-13T09:23:01.551Z,6056.00
2022-12-13T09:24:01.357Z,5756.00
2022-12-13T09:24:57.531Z,5680.00
2022-12-13T09:26:05.773Z,5688.00
2022-12-13T09:26:57.635Z,5436.00
2022-12-13T09:27:57.438Z,5336.00
2022-12-13T09:28:57.418Z,5588.00
2022-12-13T09:29:57.394Z,6724.00
2022-12-13T09:30:57.357Z,6664.00
2022-12-13T09:31:57.437Z,6260.00
2022-12-13T09:32:57.296Z,6204.00
2022-12-13T09:33:57.284Z,7200.00
2022-12-13T09:34:57.250Z,7796.00
2022-12-13T09:35:57.218Z,7844.00
2022-12-13T09:37:01.106Z,8896.00
2022-12-13T09:37:57.153Z,9000.00
2022-12-13T09:38:57.128Z,8280.00
2022-12-13T09:39:57.106Z,7352.00
2022-12-13T09:40:58.275Z,6640.00
2022-12-13T09:42:01.226Z,6340.00
2022-12-13T09:43:13.438Z,6808.00
2022-12-13T09:44:01.066Z,7116.00
2022-12-13T09:45:01.119Z,7296.00
2022-12-13T09:46:01.371Z,8212.00
2022-12-13T09:47:01.051Z,8140.00
2022-12-13T09:48:01.317Z,7504.00
2022-12-13T09:49:01.623Z,7084.00
2022-12-13T09:49:56.859Z,7904.00
2022-12-13T09:51:18.296Z,9508.00
2022-12-13T09:52:10.857Z,9124.00
2022-12-13T09:53:00.261Z,9296.00
2022-12-13T09:53:56.709Z,9676.00
2022-12-13T09:54:56.683Z,11440.00
2022-12-13T09:56:10.131Z,13616.00
2022-12-13T09:56:56.664Z,12972.00
2022-12-13T09:57:56.604Z,13252.00
2022-12-13T09:58:56.583Z,10016.00
2022-12-13T10:00:01.294Z,9016.00
2022-12-13T10:00:56.563Z,9900.00
2022-12-13T10:01:56.520Z,10764.00
2022-12-13T10:02:56.464Z,11024.00
2022-12-13T10:03:56.434Z,12348.00
2022-12-13T10:05:00.821Z,11816.00
2022-12-13T10:05:56.411Z,10632.00
2022-12-13T10:06:56.357Z,10912.00
2022-12-13T10:07:56.334Z,10748.00
2022-12-13T10:08:57.634Z,10260.00
2022-12-13T10:09:56.268Z,8620.00
2022-12-13T10:10:56.245Z,8120.00
2022-12-13T10:11:56.216Z,9424.00
2022-12-13T10:12:56.245Z,9368.00
2022-12-13T10:13:56.177Z,10600.00
2022-12-13T10:14:56.159Z,10336.00
2022-12-13T10:15:56.123Z,11240.00
2022-12-13T10:16:56.105Z,11372.00
2022-12-13T10:17:56.204Z,10572.00
2022-12-13T10:18:56.041Z,10664.00
2022-12-13T10:19:55.999Z,9672.00
2022-12-13T10:20:55.972Z,10592.00
2022-12-13T10:21:55.950Z,10348.00
2022-12-13T10:23:31.327Z,11272.00
2022-12-13T10:24:55.869Z,9676.00
2022-12-13T10:26:02.919Z,8200.00
2022-12-13T10:26:55.826Z,9836.00
2022-12-13T10:27:55.785Z,10660.00
2022-12-13T10:28:55.764Z,10424.00
2022-12-13T10:29:55.737Z,11120.00
2022-12-13T10:30:55.707Z,9636.00
2022-12-13T10:31:55.704Z,8508.00
2022-12-13T10:32:55.655Z,9320.00
2022-12-13T10:33:55.638Z,8476.00
2022-12-13T10:34:55.606Z,7912.00
2022-12-13T10:35:55.568Z,8360.00
2022-12-13T10:36:59.552Z,8828.00
2022-12-13T10:37:55.521Z,10588.00
2022-12-13T10:38:55.510Z,9436.00
2022-12-13T10:39:55.468Z,10624.00
2022-12-13T10:40:55.441Z,12228.00
2022-12-13T10:41:55.413Z,11948.00
2022-12-13T10:42:55.407Z,12300.00
2022-12-13T10:43:55.382Z,12380.00
2022-12-13T10:44:55.340Z,12592.00
2022-12-13T10:45:55.348Z,12604.00
2022-12-13T10:46:55.285Z,13724.00
2022-12-13T10:47:59.395Z,13868.00
2022-12-13T10:48:55.235Z,13184.00
2022-12-13T10:49:59.138Z,13608.00
2022-12-13T10:50:55.220Z,12292.00
2022-12-13T10:51:55.150Z,13484.00
2022-12-13T10:52:55.125Z,14284.00
2022-12-13T10:53:55.110Z,14604.00
2022-12-13T10:54:55.086Z,14472.00
2022-12-13T10:55:55.053Z,14436.00
2022-12-13T10:56:55.021Z,14172.00
2022-12-13T10:57:55.008Z,13880.00
2022-12-13T10:58:54.969Z,13844.00
2022-12-13T10:59:54.945Z,13512.00
2022-12-13T11:00:54.927Z,13444.00
2022-12-13T11:01:54.972Z,13280.00
2022-12-13T11:02:54.883Z,13216.00
2022-12-13T11:03:54.840Z,13020.00
2022-12-13T11:04:54.825Z,12728.00
2022-12-13T11:05:54.802Z,12552.00
2022-12-13T11:06:54.784Z,12372.00
2022-12-13T11:07:54.744Z,12332.00
2022-12-13T11:08:54.716Z,12284.00
2022-12-13T11:09:54.692Z,11940.00
2022-12-13T11:10:54.668Z,11784.00
2022-12-13T11:11:58.912Z,11596.00
2022-12-13T11:12:54.620Z,11540.00
2022-12-13T11:13:54.583Z,11496.00
2022-12-13T11:14:54.592Z,11408.00
2022-12-13T11:15:54.548Z,11344.00
2022-12-13T11:16:54.551Z,11252.00
2022-12-13T11:17:54.498Z,11252.00
2022-12-13T11:18:54.472Z,11276.00
2022-12-13T11:19:54.444Z,11096.00
2022-12-13T11:20:54.447Z,11172.00
2022-12-13T11:21:54.397Z,11064.00
2022-12-13T11:22:54.363Z,10944.00
2022-12-13T11:23:54.354Z,10744.00
2022-12-13T11:24:54.313Z,10532.00
2022-12-13T11:25:54.278Z,10316.00
2022-12-13T11:26:54.264Z,10196.00
2022-12-13T11:27:54.235Z,10104.00
2022-12-13T11:28:54.206Z,10020.00
2022-12-13T11:29:54.183Z,10092.00
2022-12-13T11:30:54.164Z,9928.00
2022-12-13T11:31:54.226Z,9880.00
2022-12-13T11:32:58.913Z,9740.00
2022-12-13T11:33:54.088Z,9760.00
2022-12-13T11:34:54.109Z,9708.00
2022-12-13T11:35:54.105Z,9508.00
2022-12-13T11:36:54.028Z,9360.00
2022-12-13T11:37:53.986Z,9044.00
2022-12-13T11:38:57.690Z,8976.00
2022-12-13T11:39:53.934Z,9168.00
2022-12-13T11:40:53.917Z,8192.00
2022-12-13T11:41:53.884Z,6752.00
2022-12-13T11:42:53.892Z,7240.00
2022-12-13T11:43:53.839Z,7312.00
2022-12-13T11:44:53.820Z,7844.00
2022-12-13T11:45:53.834Z,7712.00
2022-12-13T11:46:53.765Z,8160.00
2022-12-13T11:47:58.387Z,8028.00
2022-12-13T11:48:53.713Z,7728.00
2022-12-13T11:49:53.686Z,7672.00
2022-12-13T11:50:53.661Z,7568.00
2022-12-13T11:51:53.632Z,7008.00
2022-12-13T11:52:53.615Z,6244.00
2022-12-13T11:53:53.592Z,5540.00
2022-12-13T11:54:53.562Z,6400.00
2022-12-13T11:55:53.526Z,7400.00
2022-12-13T11:57:00.227Z,7512.00
2022-12-13T11:57:53.505Z,8224.00
2022-12-13T11:59:03.077Z,7044.00
2022-12-13T11:59:53.428Z,6888.00
2022-12-13T12:00:53.409Z,7552.00
2022-12-13T12:01:53.376Z,6804.00
2022-12-13T12:02:53.408Z,7396.00
2022-12-13T12:03:53.363Z,7152.00
2022-12-13T12:04:59.687Z,7780.00
2022-12-13T12:05:56.198Z,7644.00
2022-12-13T12:06:53.264Z,7304.00
2022-12-13T12:08:31.243Z,7020.00
2022-12-13T12:08:53.215Z,7620.00
2022-12-13T12:09:53.184Z,7976.00
2022-12-13T12:10:53.155Z,8316.00
2022-12-13T12:11:53.128Z,7120.00
2022-12-13T12:12:53.114Z,7476.00
2022-12-13T12:13:53.110Z,6540.00
2022-12-13T12:14:53.083Z,6768.00
2022-12-13T12:15:55.247Z,7928.00
2022-12-13T12:16:53.003Z,7964.00
2022-12-13T12:17:52.990Z,8060.00
2022-12-13T12:18:52.968Z,7840.00
2022-12-13T12:19:53.001Z,8052.00
2022-12-13T12:20:52.915Z,8000.00
2022-12-13T12:22:16.442Z,8068.00
2022-12-13T12:22:52.855Z,8040.00
2022-12-13T12:23:53.022Z,7836.00
2022-12-13T12:24:52.812Z,7516.00
2022-12-13T12:25:52.780Z,7744.00
2022-12-13T12:26:52.757Z,7596.00
2022-12-13T12:27:52.750Z,7912.00
2022-12-13T12:28:52.702Z,7892.00
2022-12-13T12:29:52.675Z,7836.00
2022-12-13T12:30:52.696Z,7752.00
2022-12-13T12:31:52.642Z,7568.00
2022-12-13T12:32:52.603Z,7188.00
2022-12-13T12:33:52.579Z,7256.00
2022-12-13T12:34:52.574Z,7652.00
2022-12-13T12:35:52.524Z,7756.00
2022-12-13T12:36:52.512Z,7784.00
2022-12-13T12:37:52.478Z,7532.00
2022-12-13T12:38:52.489Z,6040.00
2022-12-13T12:39:52.426Z,4668.00
2022-12-13T12:41:15.676Z,4552.00
2022-12-13T12:41:52.377Z,5492.00
2022-12-13T12:43:15.375Z,5908.00
2022-12-13T12:43:52.324Z,5012.00